Time;durP1;ratioP1;P1;durP2;ratioP2;P2;SDS_P1;SDS_P2;PMS_P1;PMS_P2;Temp;Humidity;BMP_temperature;BMP_pressure;BME280_temperature;BME280_humidity;BME280_pressure;Samples;Min_cycle;Max_cycle;Signal;HPM_P1;HPM_P2
2023/05/23 00:01:39;;;;;;;5.68;0.63;;;;;;;11.91;52.79;101723.53;5061341;28;20051;-69
2023/05/23 00:04:06;;;;;;;1.80;0.70;;;;;;;11.88;53.34;101726.19;5058721;28;20049;-69
2023/05/23 00:06:34;;;;;;;3.03;0.60;;;;;;;11.84;53.05;101721.84;5058245;28;20137;-69
2023/05/23 00:09:02;;;;;;;3.70;0.65;;;;;;;11.81;53.12;101721.88;5059995;28;20493;-69
2023/05/23 00:11:29;;;;;;;4.13;0.77;;;;;;;11.78;53.31;101721.00;5059880;28;20055;-68
2023/05/23 00:13:59;;;;;;;1.00;0.65;;;;;;;11.74;53.59;101728.00;5057870;28;20852;-69
2023/05/23 00:16:27;;;;;;;3.00;0.60;;;;;;;11.69;53.55;101722.81;5061868;28;20048;-68
2023/05/23 00:18:56;;;;;;;2.70;0.95;;;;;;;11.63;53.52;101715.00;5061499;28;20049;-69
2023/05/23 00:21:23;;;;;;;6.78;0.57;;;;;;;11.62;54.09;101717.66;5055353;28;20126;-71
2023/05/23 00:23:50;;;;;;;2.70;0.75;;;;;;;11.58;54.09;101721.16;5058369;28;20067;-68
2023/05/23 00:26:16;;;;;;;3.28;0.70;;;;;;;11.55;53.87;101715.94;5060393;28;20048;-69
2023/05/23 00:28:43;;;;;;;5.07;0.73;;;;;;;11.52;54.12;101714.22;5058614;28;20053;-68
2023/05/23 00:31:11;;;;;;;1.33;0.70;;;;;;;11.48;54.25;101709.91;5063977;28;20045;-69
2023/05/23 00:33:38;;;;;;;0.85;0.52;;;;;;;11.46;54.28;101711.66;5052171;28;20485;-68
2023/05/23 00:36:06;;;;;;;2.95;0.85;;;;;;;11.41;54.42;101709.09;5060066;28;20059;-69
2023/05/23 00:38:33;;;;;;;2.83;1.05;;;;;;;11.39;54.17;101699.50;5059796;28;20083;-69
2023/05/23 00:40:59;;;;;;;4.28;0.88;;;;;;;11.35;54.28;101701.25;5058515;28;20059;-69
2023/05/23 00:43:28;;;;;;;2.15;0.70;;;;;;;11.32;54.52;101690.81;5058588;28;20139;-69
2023/05/23 00:45:55;;;;;;;1.15;0.60;;;;;;;11.29;54.58;101696.06;5056502;28;20076;-68
2023/05/23 00:48:24;;;;;;;2.10;0.98;;;;;;;11.27;54.49;101700.47;5066075;28;20045;-69
2023/05/23 00:50:51;;;;;;;2.35;0.60;;;;;;;11.25;54.90;101707.44;5061698;28;20048;-69
2023/05/23 00:53:18;;;;;;;2.90;0.70;;;;;;;11.20;55.03;101704.84;5063064;28;20044;-69
2023/05/23 00:55:45;;;;;;;1.55;0.77;;;;;;;11.18;55.05;101705.72;5064273;28;20086;-69
2023/05/23 00:58:14;;;;;;;0.80;0.50;;;;;;;11.15;55.23;101698.75;5061512;28;20056;-69
2023/05/23 01:00:41;;;;;;;2.85;1.02;;;;;;;11.12;55.57;101701.41;5059609;28;20048;-68
2023/05/23 01:03:08;;;;;;;1.00;0.70;;;;;;;11.10;55.58;101694.44;5062902;28;20040;-68
2023/05/23 01:05:36;;;;;;;1.95;0.60;;;;;;;11.07;55.60;101691.84;5060418;28;20055;-69
2023/05/23 01:08:03;;;;;;;0.98;0.70;;;;;;;11.08;55.91;101694.47;5060467;28;20083;-69
2023/05/23 01:10:31;;;;;;;2.90;0.90;;;;;;;11.06;56.16;101690.13;5060607;28;20490;-69
2023/05/23 01:13:10;;;;;;;2.88;1.63;;;;;;;11.04;56.19;101684.88;5059786;28;20047;-69
2023/05/23 01:15:42;;;;;;;1.17;0.80;;;;;;;11.03;56.07;101681.41;5054154;28;20052;-69
2023/05/23 01:18:14;;;;;;;1.10;0.55;;;;;;;11.02;56.12;101687.53;5057005;28;20056;-69
2023/05/23 01:20:48;;;;;;;3.50;0.88;;;;;;;11.01;56.45;101692.75;5061112;28;20076;-69
2023/05/23 01:24:11;;;;;;;6.03;1.02;;;;;;;11.00;55.74;101698.88;5060715;28;20052;-68
2023/05/23 01:27:01;;;;;;;4.25;0.80;;;;;;;10.97;56.17;101704.13;5062941;28;20496;-68
2023/05/23 01:29:34;;;;;;;3.35;0.73;;;;;;;10.95;55.88;101703.25;5060582;28;20512;-69
2023/05/23 01:32:06;;;;;;;2.75;0.80;;;;;;;10.92;55.94;101698.91;5057905;28;20044;-69
2023/05/23 01:34:36;;;;;;;2.35;0.60;;;;;;;10.90;56.26;101705.91;5064728;28;20053;-69
2023/05/23 01:37:08;;;;;;;2.17;0.85;;;;;;;10.89;56.40;101706.75;5062658;28;20052;-69
2023/05/23 01:39:35;;;;;;;2.40;0.70;;;;;;;10.87;56.40;101708.53;5062397;28;20048;-69
2023/05/23 01:42:02;;;;;;;1.77;0.73;;;;;;;10.87;56.49;101711.16;5065149;28;20062;-69
2023/05/23 01:44:31;;;;;;;0.80;0.60;;;;;;;10.86;56.71;101714.63;5055247;28;20721;-69
2023/05/23 01:46:58;;;;;;;1.90;0.85;;;;;;;10.85;56.74;101699.81;5060126;28;20048;-69
2023/05/23 01:49:26;;;;;;;2.67;0.90;;;;;;;10.84;56.72;101702.44;5061776;28;20044;-69
2023/05/23 01:51:53;;;;;;;0.82;0.80;;;;;;;10.82;57.06;101702.44;5061665;28;20040;-69
2023/05/23 01:54:20;;;;;;;6.57;2.38;;;;;;;10.83;57.03;101700.69;5065968;28;20135;-68
2023/05/23 01:56:48;;;;;;;8.38;0.80;;;;;;;10.83;57.24;101698.94;5057672;28;20049;-69
2023/05/23 01:59:15;;;;;;;2.58;0.70;;;;;;;10.83;57.37;101698.09;5063190;28;20044;-69
2023/05/23 02:01:44;;;;;;;2.33;0.75;;;;;;;10.82;57.67;101698.97;5055077;28;20040;-68
2023/05/23 02:04:10;;;;;;;3.42;0.82;;;;;;;10.83;57.82;101709.41;5053026;28;20048;-69
2023/05/23 02:06:37;;;;;;;1.95;0.90;;;;;;;10.82;57.40;101702.44;5061027;28;20697;-68
2023/05/23 02:09:04;;;;;;;3.08;0.70;;;;;;;10.80;57.77;101699.81;5060122;28;20041;-69
2023/05/23 02:11:31;;;;;;;5.70;2.10;;;;;;;10.81;57.85;101705.91;5062292;28;20056;-69
2023/05/23 02:13:58;;;;;;;1.30;0.80;;;;;;;10.82;57.77;101701.59;5058846;28;20059;-69
2023/05/23 02:16:25;;;;;;;2.30;0.88;;;;;;;10.80;57.91;101693.75;5065248;28;20503;-68
2023/05/23 02:18:55;;;;;;;1.77;0.90;;;;;;;10.81;58.47;101695.47;5060608;28;20048;-69
2023/05/23 02:21:22;;;;;;;3.67;0.77;;;;;;;10.80;58.52;101689.38;5058053;28;20067;-68
2023/05/23 02:23:49;;;;;;;3.63;0.90;;;;;;;10.83;58.59;101692.84;5060855;28;20053;-66
2023/05/23 02:26:16;;;;;;;1.45;0.60;;;;;;;10.79;58.88;101686.78;5059915;28;20052;-66
2023/05/23 02:28:43;;;;;;;1.92;0.70;;;;;;;10.82;58.76;101686.78;5061284;28;20057;-68
2023/05/23 02:31:10;;;;;;;3.15;0.75;;;;;;;10.81;59.22;101682.41;5064090;28;20037;-68
2023/05/23 02:33:37;;;;;;;2.20;0.85;;;;;;;10.84;59.40;101685.00;5060568;28;20048;-68
2023/05/23 02:36:06;;;;;;;2.35;0.60;;;;;;;10.85;59.31;101678.03;5061748;28;20087;-68
2023/05/23 02:38:33;;;;;;;4.47;1.63;;;;;;;10.86;59.64;101677.16;5061389;28;20052;-68
2023/05/23 02:41:00;;;;;;;1.00;0.60;;;;;;;10.86;59.82;101670.19;5058721;28;20053;-69
2023/05/23 02:43:28;;;;;;;2.45;0.60;;;;;;;10.88;59.74;101675.41;5063279;28;20127;-68
2023/05/23 02:45:54;;;;;;;1.10;0.70;;;;;;;10.88;59.78;101668.44;5060712;28;20409;-68
2023/05/23 02:48:21;;;;;;;3.15;0.70;;;;;;;10.89;59.99;101664.94;5062856;28;20041;-68
2023/05/23 02:50:48;;;;;;;1.33;1.00;;;;;;;10.89;60.51;101658.84;5058902;28;20081;-68
2023/05/23 02:53:17;;;;;;;6.63;1.00;;;;;;;10.91;60.59;101652.72;5065409;28;20048;-68
2023/05/23 02:55:43;;;;;;;1.88;0.90;;;;;;;10.92;60.54;101657.06;5064088;28;20045;-68
2023/05/23 02:58:10;;;;;;;5.47;0.88;;;;;;;10.94;60.63;101652.72;5061622;28;20141;-68
2023/05/23 03:00:38;;;;;;;2.00;0.50;;;;;;;10.96;60.54;101652.72;5063494;28;20051;-68
2023/05/23 03:03:05;;;;;;;2.47;0.68;;;;;;;10.96;60.76;101645.75;5060362;28;20110;-68
2023/05/23 03:05:32;;;;;;;2.65;0.73;;;;;;;10.99;60.82;101644.84;5057351;28;20501;-69
2023/05/23 03:07:59;;;;;;;1.33;0.90;;;;;;;10.96;61.43;101631.81;5059149;28;20499;-69
2023/05/23 03:10:27;;;;;;;1.13;0.90;;;;;;;11.03;61.10;101641.31;5062091;28;20094;-68
2023/05/23 03:12:54;;;;;;;1.50;0.90;;;;;;;11.06;61.34;101637.81;5060355;28;20049;-69
2023/05/23 03:15:21;;;;;;;2.05;1.48;;;;;;;11.08;61.30;101641.31;5064938;28;20430;-69
2023/05/23 03:17:48;;;;;;;1.33;0.73;;;;;;;11.08;61.45;101638.69;5064561;28;20120;-68
2023/05/23 03:20:15;;;;;;;1.90;0.95;;;;;;;11.09;61.44;101636.06;5063406;28;20052;-69
2023/05/23 03:22:44;;;;;;;3.85;1.17;;;;;;;11.11;61.64;101641.28;5056064;28;20049;-68
2023/05/23 03:25:11;;;;;;;2.55;0.70;;;;;;;11.13;61.54;101631.69;5053999;28;20045;-69
2023/05/23 03:27:39;;;;;;;4.38;1.17;;;;;;;11.14;61.68;101636.91;5062665;28;20059;-68
2023/05/23 03:30:07;;;;;;;2.35;0.68;;;;;;;11.16;61.84;101629.91;5057437;28;20051;-69
2023/05/23 03:32:34;;;;;;;1.65;0.80;;;;;;;11.19;62.08;101623.78;5060855;28;21881;-69
2023/05/23 03:35:01;;;;;;;1.45;0.82;;;;;;;11.21;62.27;101622.00;5058060;28;20048;-69
2023/05/23 03:37:28;;;;;;;3.20;0.98;;;;;;;11.23;62.20;101621.13;5064137;28;20053;-69
2023/05/23 03:39:55;;;;;;;2.08;0.70;;;;;;;11.26;62.38;101621.09;5060396;28;20780;-69
2023/05/23 03:42:22;;;;;;;1.55;0.90;;;;;;;11.30;62.38;101616.75;5063582;28;20053;-69
2023/05/23 03:44:50;;;;;;;2.22;0.60;;;;;;;11.32;62.23;101619.31;5056878;28;20064;-69
2023/05/23 03:47:17;;;;;;;1.48;0.52;;;;;;;11.34;62.41;101614.97;5062843;28;20054;-69
2023/05/23 03:49:45;;;;;;;3.75;0.85;;;;;;;11.38;62.61;101617.50;5059636;28;20413;-69
2023/05/23 03:52:12;;;;;;;2.75;0.60;;;;;;;11.40;62.65;101618.38;5062469;28;20067;-69
2023/05/23 03:54:38;;;;;;;3.63;0.50;;;;;;;11.44;62.34;101614.88;5058082;28;20048;-69
2023/05/23 03:57:06;;;;;;;0.90;0.63;;;;;;;11.47;62.38;101609.63;5059374;28;20051;-68
2023/05/23 03:59:32;;;;;;;3.22;0.60;;;;;;;11.52;62.54;101606.06;5063198;28;20052;-68
2023/05/23 04:02:01;;;;;;;1.08;0.70;;;;;;;11.56;62.63;101602.56;5059418;28;20048;-69
2023/05/23 04:04:28;;;;;;;1.13;0.65;;;;;;;11.58;62.34;101600.78;5054462;28;20163;-69
2023/05/23 04:06:55;;;;;;;2.20;0.70;;;;;;;11.61;62.12;101595.50;5058545;28;20041;-69
2023/05/23 04:09:22;;;;;;;1.15;0.73;;;;;;;11.65;61.95;101599.84;5057496;28;20725;-69
2023/05/23 04:11:49;;;;;;;1.95;0.73;;;;;;;11.67;62.27;101601.59;5059664;28;20048;-69
2023/05/23 04:14:16;;;;;;;4.30;0.80;;;;;;;11.66;62.30;101584.13;5061105;28;20420;-69
2023/05/23 04:16:43;;;;;;;0.65;0.50;;;;;;;11.72;62.11;101593.66;5055920;28;20048;-69
2023/05/23 04:19:12;;;;;;;0.60;0.50;;;;;;;11.75;61.79;101582.28;5059113;28;20063;-68
2023/05/23 04:21:39;;;;;;;1.58;0.60;;;;;;;11.77;62.25;101583.16;5060260;28;20126;-69
2023/05/23 04:24:07;;;;;;;2.80;0.93;;;;;;;11.79;62.39;101579.66;5055199;28;20044;-68
2023/05/23 04:26:35;;;;;;;0.80;0.70;;;;;;;11.81;62.56;101577.88;5059481;28;20045;-69
2023/05/23 04:29:02;;;;;;;2.45;0.60;;;;;;;11.83;62.62;101576.09;5061970;28;20060;-68
2023/05/23 04:31:29;;;;;;;4.30;0.80;;;;;;;11.86;62.88;101570.84;5058720;28;20451;-69
2023/05/23 04:33:56;;;;;;;1.77;0.60;;;;;;;11.87;63.11;101570.00;5058659;28;20049;-69
2023/05/23 04:36:25;;;;;;;2.22;0.68;;;;;;;11.92;63.47;101562.97;5058704;28;20419;-69
2023/05/23 04:38:52;;;;;;;2.47;0.50;;;;;;;11.98;62.93;101568.97;5058810;28;20049;-69
2023/05/23 04:41:22;;;;;;;0.90;0.65;;;;;;;12.02;63.91;101563.72;5059237;28;20049;-69
2023/05/23 04:43:53;;;;;;;1.52;0.77;;;;;;;12.09;64.29;101559.25;5062847;28;20094;-68
2023/05/23 04:46:25;;;;;;;0.70;0.50;;;;;;;12.14;63.79;101544.34;5058888;28;20135;-68
2023/05/23 04:48:52;;;;;;;1.30;0.52;;;;;;;12.22;63.91;101555.59;5060500;28;20092;-68
2023/05/23 04:51:20;;;;;;;0.80;0.52;;;;;;;12.32;63.83;101551.09;5058431;28;20040;-68
2023/05/23 04:53:50;;;;;;;2.08;0.50;;;;;;;12.44;63.70;101557.97;5060540;28;20082;-68
2023/05/23 04:56:19;;;;;;;2.85;0.60;;;;;;;12.52;63.48;101549.09;5063041;28;20410;-68
2023/05/23 04:58:46;;;;;;;3.85;0.60;;;;;;;12.63;62.81;101553.31;5058767;28;20049;-68
2023/05/23 05:01:14;;;;;;;1.60;0.50;;;;;;;12.74;63.09;101560.13;5064670;28;20156;-68
2023/05/23 05:03:41;;;;;;;1.73;0.50;;;;;;;12.85;62.81;101548.63;5062258;28;20090;-68
2023/05/23 05:06:08;;;;;;;4.57;0.50;;;;;;;12.94;62.61;101540.59;5065412;28;20053;-68
2023/05/23 05:08:36;;;;;;;5.43;0.50;;;;;;;13.04;63.03;101544.81;5062214;28;20048;-68
2023/05/23 05:11:04;;;;;;;3.22;0.50;;;;;;;13.12;62.53;101539.41;5065099;28;20049;-68
2023/05/23 05:13:31;;;;;;;1.23;0.50;;;;;;;13.20;62.40;101535.78;5061397;28;20044;-68
2023/05/23 05:15:58;;;;;;;2.65;0.63;;;;;;;13.28;62.49;101533.91;5046782;28;20039;-68
2023/05/23 05:18:27;;;;;;;1.27;0.50;;;;;;;13.36;62.41;101536.41;5061051;28;20044;-70
2023/05/23 05:20:54;;;;;;;0.90;0.50;;;;;;;13.42;62.19;101525.81;5064849;28;20104;-68
2023/05/23 05:23:27;;;;;;;1.63;1.10;;;;;;;13.54;62.49;101524.69;5061221;28;20051;-69
2023/05/23 05:25:55;;;;;;;1.90;0.70;;;;;;;13.62;62.32;101522.81;5062841;28;20060;-68
2023/05/23 05:28:23;;;;;;;1.23;0.60;;;;;;;13.72;62.24;101524.38;5064728;28;20063;-68
2023/05/23 05:30:52;;;;;;;2.22;0.68;;;;;;;13.79;62.08;101514.59;5061250;28;21329;-68
2023/05/23 05:33:22;;;;;;;8.45;1.70;;;;;;;13.90;61.65;101517.00;5067637;28;20546;-68
2023/05/23 05:35:48;;;;;;;3.47;0.70;;;;;;;14.00;61.55;101518.53;5061841;28;20052;-67
2023/05/23 05:38:15;;;;;;;2.03;0.65;;;;;;;14.09;61.33;101517.50;5063763;28;20045;-68
2023/05/23 05:40:42;;;;;;;2.25;0.70;;;;;;;14.20;60.95;101519.88;5061159;28;20798;-68
2023/05/23 05:43:10;;;;;;;0.88;0.60;;;;;;;14.31;61.08;101507.38;5064086;28;20051;-68
2023/05/23 05:45:38;;;;;;;2.38;0.63;;;;;;;14.39;60.76;101500.19;5067023;28;20111;-68
2023/05/23 05:48:06;;;;;;;1.05;0.45;;;;;;;14.52;60.55;101504.31;5062698;28;20854;-68
2023/05/23 05:50:33;;;;;;;0.63;0.40;;;;;;;14.64;60.27;101504.94;5066997;28;20044;-67
2023/05/23 05:53:00;;;;;;;2.72;0.50;;;;;;;14.75;59.87;101508.16;5062566;28;20045;-68
2023/05/23 05:55:27;;;;;;;2.47;0.50;;;;;;;14.83;59.66;101501.81;5064392;28;20043;-67
2023/05/23 05:57:54;;;;;;;2.13;0.60;;;;;;;14.94;59.42;101495.41;5060694;28;20033;-68
2023/05/23 06:00:21;;;;;;;3.05;0.68;;;;;;;15.02;59.30;101499.56;5063960;28;20881;-68
2023/05/23 06:02:50;;;;;;;7.70;0.60;;;;;;;15.06;58.91;101488.09;5057731;28;20056;-67
2023/05/23 06:05:17;;;;;;;1.35;0.43;;;;;;;15.23;58.75;101494.69;5064173;28;20466;-67
2023/05/23 06:07:44;;;;;;;2.78;0.60;;;;;;;15.33;58.48;101493.50;5059673;28;20048;-67
2023/05/23 06:10:12;;;;;;;3.22;0.47;;;;;;;15.42;58.15;101488.00;5060255;28;20049;-67
2023/05/23 06:12:39;;;;;;;1.40;0.47;;;;;;;15.51;58.26;101478.97;5058455;28;20052;-67
2023/05/23 06:15:08;;;;;;;0.63;0.40;;;;;;;15.60;57.56;101483.16;5064471;28;20079;-67
2023/05/23 06:17:35;;;;;;;1.83;0.63;;;;;;;15.67;57.54;101485.53;5063085;28;20084;-68
2023/05/23 06:20:04;;;;;;;2.85;0.50;;;;;;;15.75;56.86;101482.75;5057581;28;20071;-67
2023/05/23 06:22:31;;;;;;;1.38;0.40;;;;;;;15.83;56.84;101485.16;5060857;28;20082;-67
2023/05/23 06:24:57;;;;;;;1.02;0.50;;;;;;;15.90;56.33;101487.56;5059596;28;20390;-67
2023/05/23 06:27:24;;;;;;;3.75;0.60;;;;;;;15.98;55.86;101483.84;5063076;28;20041;-67
2023/05/23 06:29:51;;;;;;;0.68;0.40;;;;;;;16.04;55.61;101481.88;5034636;28;20043;-67
2023/05/23 06:32:18;;;;;;;2.55;0.60;;;;;;;16.11;54.98;101479.94;5064566;28;20048;-67
2023/05/23 06:34:45;;;;;;;4.13;0.60;;;;;;;16.19;54.88;101477.91;5062466;28;20052;-67
2023/05/23 06:37:13;;;;;;;0.70;0.40;;;;;;;16.26;54.36;101471.56;5066918;28;20131;-67
2023/05/23 06:39:40;;;;;;;1.67;0.60;;;;;;;16.30;54.39;101459.97;5064255;28;20535;-67
2023/05/23 06:42:07;;;;;;;2.47;0.60;;;;;;;16.37;54.44;101466.81;5060844;28;20421;-67
2023/05/23 06:44:34;;;;;;;1.13;0.50;;;;;;;16.44;54.11;101463.97;5062824;28;20501;-67
2023/05/23 06:47:01;;;;;;;2.42;0.43;;;;;;;16.52;53.82;101461.97;5060601;28;20409;-67
2023/05/23 06:49:28;;;;;;;1.65;0.50;;;;;;;16.61;53.56;101461.66;5062613;28;20429;-68
2023/05/23 06:51:55;;;;;;;7.95;0.52;;;;;;;16.69;53.47;101462.25;5059676;28;20045;-67
2023/05/23 06:54:24;;;;;;;30.92;1.55;;;;;;;16.79;53.61;101463.72;5062648;28;20048;-67
2023/05/23 06:56:50;;;;;;;8.15;0.55;;;;;;;16.94;53.52;101470.25;5064911;28;20084;-67
2023/05/23 06:59:17;;;;;;;1.92;0.40;;;;;;;17.06;53.27;101471.63;5064164;28;20045;-67
2023/05/23 07:01:44;;;;;;;0.68;0.30;;;;;;;17.17;53.02;101453.63;5062775;28;20049;-67
2023/05/23 07:04:12;;;;;;;3.45;0.50;;;;;;;17.32;52.90;101457.50;5056639;28;20390;-67
2023/05/23 07:06:39;;;;;;;1.65;0.40;;;;;;;17.46;52.36;101457.00;5063568;28;20094;-67
2023/05/23 07:09:06;;;;;;;4.22;0.50;;;;;;;17.53;50.38;101446.16;5059951;28;21275;-67
2023/05/23 07:11:35;;;;;;;1.75;0.60;;;;;;;17.77;49.77;101454.94;5059967;28;20393;-67
2023/05/23 07:14:02;;;;;;;1.58;0.30;;;;;;;17.92;48.48;101468.53;5059413;28;20093;-67
2023/05/23 07:16:29;;;;;;;2.22;0.68;;;;;;;18.07;48.10;101467.09;5064820;28;20056;-67
2023/05/23 07:18:56;;;;;;;2.20;0.60;;;;;;;18.23;47.80;101465.56;5059497;28;20045;-67
2023/05/23 07:21:23;;;;;;;2.63;0.45;;;;;;;18.37;48.09;101465.88;5059055;28;20564;-67
2023/05/23 07:23:50;;;;;;;1.60;0.45;;;;;;;18.49;46.60;101461.88;5063216;28;20488;-67
2023/05/23 07:26:17;;;;;;;4.15;0.88;;;;;;;18.61;46.55;101450.81;5060908;28;20139;-67
2023/05/23 07:28:45;;;;;;;3.38;0.85;;;;;;;18.74;46.56;101455.63;5061931;28;20060;-67
2023/05/23 07:31:12;;;;;;;0.60;0.30;;;;;;;18.85;45.34;101453.38;5061511;28;20044;-67
2023/05/23 07:33:39;;;;;;;1.38;0.57;;;;;;;18.99;44.95;101458.09;5061957;28;20055;-67
2023/05/23 07:36:06;;;;;;;2.97;0.70;;;;;;;19.10;44.86;101448.75;5063199;28;20128;-67
2023/05/23 07:38:33;;;;;;;1.75;0.32;;;;;;;19.25;44.63;101460.47;5061524;28;20060;-67
2023/05/23 07:41:00;;;;;;;1.05;0.57;;;;;;;19.38;44.25;101458.16;5064835;28;20743;-67
2023/05/23 07:43:27;;;;;;;1.48;0.40;;;;;;;19.50;43.89;101452.31;5063778;28;20037;-67
2023/05/23 07:45:55;;;;;;;1.95;0.43;;;;;;;19.62;43.56;101452.69;5063084;28;20045;-67
2023/05/23 07:48:22;;;;;;;2.80;0.40;;;;;;;19.74;42.97;101452.16;5055865;28;20361;-67
2023/05/23 07:50:53;;;;;;;1.33;0.95;;;;;;;19.85;42.35;101460.47;5062776;28;20051;-67
2023/05/23 07:53:21;;;;;;;1.95;0.40;;;;;;;19.97;42.15;101462.53;5057984;28;20738;-67
2023/05/23 07:55:47;;;;;;;0.68;0.50;;;;;;;20.09;41.04;101454.94;5060385;28;20102;-67
2023/05/23 07:58:15;;;;;;;2.30;0.50;;;;;;;20.20;40.88;101452.63;5057370;28;20868;-67
2023/05/23 08:00:43;;;;;;;1.33;0.40;;;;;;;20.34;41.45;101444.00;5061803;28;20044;-67
2023/05/23 08:03:12;;;;;;;2.63;0.52;;;;;;;20.43;40.87;101441.78;5058993;28;20094;-67
2023/05/23 08:05:39;;;;;;;1.38;0.40;;;;;;;20.54;40.67;101449.22;5059641;28;20055;-67
2023/05/23 08:08:06;;;;;;;1.98;0.35;;;;;;;20.63;40.98;101450.56;5057545;28;20048;-67
2023/05/23 08:10:33;;;;;;;5.55;0.40;;;;;;;20.70;40.34;101446.69;5062773;28;20051;-67
2023/05/23 08:13:05;;;;;;;1.95;0.40;;;;;;;20.81;38.51;101443.50;5062477;28;20049;-67
2023/05/23 08:15:32;;;;;;;4.45;0.50;;;;;;;20.91;38.54;101438.56;5061704;28;20072;-67
2023/05/23 08:17:59;;;;;;;4.03;0.75;;;;;;;20.99;38.05;101439.03;5062458;28;20505;-67
2023/05/23 08:20:30;;;;;;;1.27;0.52;;;;;;;21.07;37.57;101436.84;5061913;28;20045;-67
2023/05/23 08:22:58;;;;;;;2.88;0.50;;;;;;;21.13;37.32;101433.84;5062232;28;20037;-68
2023/05/23 08:25:29;;;;;;;1.25;0.40;;;;;;;21.21;36.96;101438.78;5061924;28;20043;-67
2023/05/23 08:27:57;;;;;;;1.70;0.40;;;;;;;21.27;36.42;101439.31;5055035;28;20053;-68
2023/05/23 08:30:24;;;;;;;3.05;0.40;;;;;;;21.30;36.77;101433.81;5061268;28;20048;-73
2023/05/23 08:32:52;;;;;;;1.55;0.40;;;;;;;21.38;36.13;101425.50;5059645;28;20106;-67
2023/05/23 08:35:19;;;;;;;1.38;0.40;;;;;;;21.45;36.02;101431.31;5057179;28;20420;-67
2023/05/23 08:37:48;;;;;;;2.40;0.40;;;;;;;21.51;35.12;101425.66;5055793;28;20055;-68
2023/05/23 08:40:20;;;;;;;0.73;0.30;;;;;;;21.57;35.14;101430.66;5054804;28;20045;-68
2023/05/23 08:42:47;;;;;;;0.40;0.35;;;;;;;21.58;35.30;101424.41;5063006;28;20148;-68
2023/05/23 08:45:14;;;;;;;3.78;0.40;;;;;;;21.66;34.97;101435.50;5058845;28;20044;-68
2023/05/23 08:47:43;;;;;;;2.53;0.40;;;;;;;21.72;34.35;101434.31;5057255;28;20528;-67
2023/05/23 08:50:12;;;;;;;0.82;0.30;;;;;;;21.77;34.55;101426.91;5061607;28;20060;-67
2023/05/23 08:52:44;;;;;;;1.05;0.68;;;;;;;21.84;33.75;101432.75;5056089;28;20056;-67
2023/05/23 08:55:13;;;;;;;2.60;0.40;;;;;;;21.89;32.63;101433.38;5059370;28;20479;-68
2023/05/23 08:57:42;;;;;;;0.57;0.30;;;;;;;21.93;32.97;101424.28;5051202;28;20041;-67
2023/05/23 09:00:13;;;;;;;1.55;0.40;;;;;;;21.97;32.87;101424.03;5061341;28;20083;-67
2023/05/23 09:02:41;;;;;;;2.75;0.52;;;;;;;22.02;32.09;101426.41;5052074;28;20113;-68
2023/05/23 09:05:09;;;;;;;0.52;0.30;;;;;;;22.07;32.38;101431.47;5043990;28;20052;-68
2023/05/23 09:07:36;;;;;;;0.60;0.40;;;;;;;22.11;31.42;101423.22;5057744;28;20056;-67
2023/05/23 09:10:05;;;;;;;4.10;0.40;;;;;;;22.15;31.28;101422.13;5052673;28;20049;-68
2023/05/23 09:12:35;;;;;;;2.70;0.40;;;;;;;22.19;30.99;101422.81;5059337;28;20061;-67
2023/05/23 09:15:02;;;;;;;2.45;0.50;;;;;;;22.24;30.97;101423.44;5055197;28;20086;-68
2023/05/23 09:17:32;;;;;;;1.50;0.40;;;;;;;22.28;30.63;101414.31;5060635;28;20048;-67
2023/05/23 09:19:59;;;;;;;2.75;0.40;;;;;;;22.31;30.38;101421.25;5052661;28;20048;-67
2023/05/23 09:22:26;;;;;;;2.03;0.40;;;;;;;22.33;30.46;101419.38;5057589;28;20053;-67
2023/05/23 09:24:54;;;;;;;0.80;0.40;;;;;;;22.37;30.09;101412.91;5054642;28;20045;-67
2023/05/23 09:27:22;;;;;;;1.20;0.40;;;;;;;22.41;30.32;101419.81;5052526;28;20055;-67
2023/05/23 09:29:50;;;;;;;0.93;0.50;;;;;;;22.42;28.58;101409.03;5057883;28;20151;-67
2023/05/23 09:32:19;;;;;;;1.20;0.47;;;;;;;22.47;29.24;101421.25;5054557;28;20044;-67
2023/05/23 09:34:57;;;;;;;0.88;0.50;;;;;;;22.49;29.07;101420.22;5059395;28;20051;-67
2023/05/23 09:37:30;;;;;;;0.47;0.30;;;;;;;22.53;29.12;101416.41;5056265;28;20494;-67
2023/05/23 09:39:57;;;;;;;2.47;0.45;;;;;;;22.55;28.96;101419.84;5056320;28;20053;-67
2023/05/23 09:42:24;;;;;;;0.88;0.30;;;;;;;22.58;29.01;101422.34;5059808;28;20055;-68
2023/05/23 09:44:54;;;;;;;0.70;0.40;;;;;;;22.61;28.50;101421.31;5057651;28;20063;-67
2023/05/23 09:47:20;;;;;;;1.52;0.50;;;;;;;22.62;28.17;101426.53;5061592;28;20045;-67
2023/05/23 09:49:47;;;;;;;0.85;0.40;;;;;;;22.63;27.53;101422.94;5062385;28;20507;-67
2023/05/23 09:52:14;;;;;;;3.28;0.40;;;;;;;22.65;27.64;101422.81;5062783;28;20936;-68
2023/05/23 09:54:41;;;;;;;1.70;0.35;;;;;;;22.66;28.42;101422.75;5060321;28;20048;-67
2023/05/23 09:57:10;;;;;;;0.75;0.38;;;;;;;22.71;28.20;101413.63;5064084;28;20054;-67
2023/05/23 09:59:41;;;;;;;3.13;0.40;;;;;;;22.71;28.19;101416.28;5063357;28;20076;-67
2023/05/23 10:02:12;;;;;;;2.88;0.30;;;;;;;22.73;28.12;101419.72;5063106;28;20169;-67
2023/05/23 10:04:40;;;;;;;1.45;0.40;;;;;;;22.74;28.85;101424.09;5062182;28;20513;-67
2023/05/23 10:07:16;;;;;;;0.93;0.30;;;;;;;22.72;27.93;101416.19;5061943;28;20455;-67
2023/05/23 10:09:50;;;;;;;1.67;0.43;;;;;;;22.74;27.89;101434.75;5065596;28;20051;-67
2023/05/23 10:12:44;;;;;;;1.25;0.90;;;;;;;22.72;27.16;101431.31;5060162;28;20124;-67
2023/05/23 10:15:15;;;;;;;1.13;0.50;;;;;;;22.72;26.22;101424.19;5041266;28;20052;-67
2023/05/23 10:17:55;;;;;;;3.33;0.77;;;;;;;22.74;27.60;101418.75;5057451;28;20052;-68
2023/05/23 10:20:26;;;;;;;2.58;0.40;;;;;;;22.72;27.58;101420.69;5064339;28;20543;-68
2023/05/23 10:22:54;;;;;;;1.27;0.40;;;;;;;22.70;29.14;101427.88;5064047;28;20054;-68
2023/05/23 10:25:22;;;;;;;3.50;0.30;;;;;;;22.71;28.92;101434.91;5062667;28;20068;-68
2023/05/23 10:27:49;;;;;;;0.60;0.30;;;;;;;22.71;29.18;101433.09;5063282;28;20574;-67
2023/05/23 10:30:16;;;;;;;0.70;0.30;;;;;;;22.70;29.83;101435.88;5064951;28;20508;-67
2023/05/23 10:32:43;;;;;;;0.98;0.40;;;;;;;22.66;29.79;101428.06;5061300;28;20704;-68
2023/05/23 10:35:17;;;;;;;2.15;0.30;;;;;;;22.61;29.67;101427.47;5062582;28;20102;-67
2023/05/23 10:37:49;;;;;;;3.08;0.30;;;;;;;22.54;30.32;101431.47;5066441;28;20530;-67
2023/05/23 10:40:24;;;;;;;0.60;0.40;;;;;;;22.46;30.74;101425.72;5053764;28;20052;-68
2023/05/23 10:42:59;;;;;;;1.58;0.40;;;;;;;22.37;30.97;101424.44;5061703;28;20053;-68
2023/05/23 10:45:25;;;;;;;;;;;;;;;22.34;31.18;101426.41;5059676;28;20068;-68
2023/05/23 10:47:53;;;;;;;1.23;0.57;;;;;;;22.28;31.28;101432.94;5059349;28;19928;-67
2023/05/23 10:50:36;;;;;;;1.98;0.40;;;;;;;22.24;31.31;101426.09;5059016;28;20102;-67
2023/05/23 10:53:04;;;;;;;1.55;0.40;;;;;;;22.18;31.63;101423.78;5062945;28;20095;-67
2023/05/23 10:55:35;;;;;;;1.45;0.30;;;;;;;22.14;31.57;101425.75;5062400;28;20048;-68
2023/05/23 10:58:12;;;;;;;3.30;0.47;;;;;;;22.11;31.54;101425.03;5063049;28;20048;-67
2023/05/23 11:00:39;;;;;;;2.83;0.40;;;;;;;22.09;31.71;101433.13;5061399;28;20147;-67
2023/05/23 11:03:07;;;;;;;1.95;0.40;;;;;;;22.04;31.50;101427.19;5066235;28;20048;-68
2023/05/23 11:05:42;;;;;;;0.75;0.40;;;;;;;21.98;31.81;101428.38;5064454;28;20060;-67
2023/05/23 11:08:10;;;;;;;2.97;0.40;;;;;;;21.96;31.77;101438.25;5062319;28;20598;-68
2023/05/23 11:10:54;;;;;;;4.63;0.47;;;;;;;21.93;32.21;101438.41;5063710;28;20153;-67
2023/05/23 11:13:21;;;;;;;1.08;0.35;;;;;;;21.89;32.56;101438.69;5061443;28;20127;-68
2023/05/23 11:15:48;;;;;;;0.90;0.40;;;;;;;21.85;32.55;101437.13;5062644;28;20095;-68
2023/05/23 11:18:27;;;;;;;0.75;0.40;;;;;;;21.85;32.88;101440.63;5061514;28;20036;-67
2023/05/23 11:20:58;;;;;;;2.33;0.40;;;;;;;21.81;33.08;101440.91;5061290;28;20041;-68
2023/05/23 11:23:40;;;;;;;3.05;0.40;;;;;;;21.79;32.82;101441.84;5060604;28;20044;-68
2023/05/23 11:26:30;;;;;;;1.65;0.40;;;;;;;21.73;33.01;101438.66;5059011;28;20413;-67
2023/05/23 11:28:58;;;;;;;0.57;0.40;;;;;;;21.68;32.80;101444.22;5062903;28;20063;-67
2023/05/23 11:31:25;;;;;;;1.58;0.40;;;;;;;21.62;32.72;101441.91;5063754;28;20062;-67